createdAt,value
2022-11-23T00:01:17.400Z,99304.31
2022-11-23T00:03:47.927Z,99310.91
2022-11-23T00:06:17.251Z,99304.28
2022-11-23T00:08:46.139Z,99303.22
2022-11-23T00:11:14.451Z,99307.50
2022-11-23T00:13:43.080Z,99304.38
2022-11-23T00:16:14.419Z,99302.31
2022-11-23T00:18:42.483Z,99292.13
2022-11-23T00:21:14.231Z,99290.75
2022-11-23T00:23:43.994Z,99289.41
2022-11-23T00:26:12.564Z,99290.63
2022-11-23T00:28:42.091Z,99281.81
2022-11-23T00:31:11.816Z,99279.59
2022-11-23T00:33:40.249Z,99274.78
2022-11-23T00:36:10.391Z,99274.38
2022-11-23T00:38:40.531Z,99272.88
2022-11-23T00:41:10.764Z,99270.16
2022-11-23T00:43:39.136Z,99268.91
2022-11-23T00:46:09.765Z,99270.34
2022-11-23T00:48:38.536Z,99266.13
2022-11-23T00:51:09.007Z,99265.94
2022-11-23T00:53:37.731Z,99261.81
2022-11-23T00:56:08.438Z,99266.00
2022-11-23T00:58:38.797Z,99263.88
2022-11-23T01:01:10.043Z,99262.25
2022-11-23T01:03:39.458Z,99257.94
2022-11-23T01:06:09.398Z,99264.34
2022-11-23T01:08:37.800Z,99260.63
2022-11-23T01:11:10.081Z,99254.19
2022-11-23T01:13:38.976Z,99261.03
2022-11-23T01:16:10.907Z,99259.19
2022-11-23T01:18:39.324Z,99255.28
2022-11-23T01:21:07.404Z,99255.25
2022-11-23T01:23:35.428Z,99246.13
2022-11-23T01:26:10.939Z,99250.28
2022-11-23T01:28:40.674Z,99248.00
2022-11-23T01:31:10.513Z,99242.97
2022-11-23T01:33:39.333Z,99239.22
2022-11-23T01:36:11.958Z,99232.38
2022-11-23T01:38:40.223Z,99235.28
2022-11-23T01:41:13.412Z,99223.69
2022-11-23T01:43:41.816Z,99224.97
2022-11-23T01:46:10.253Z,99224.59
2022-11-23T01:48:41.547Z,99223.53
2022-11-23T01:51:13.917Z,99211.34
2022-11-23T01:53:43.361Z,99212.63
2022-11-23T01:56:17.636Z,99218.44
2022-11-23T01:58:51.427Z,99214.50
2022-11-23T02:01:19.883Z,99210.38
2022-11-23T02:03:53.035Z,99214.34
2022-11-23T02:06:23.675Z,99199.47
2022-11-23T02:08:52.341Z,99204.47
2022-11-23T02:11:22.716Z,99196.66
2022-11-23T02:13:54.141Z,99191.28
2022-11-23T02:16:22.144Z,99197.06
2022-11-23T02:18:52.216Z,99190.06
2022-11-23T02:21:22.838Z,99185.13
2022-11-23T02:24:02.575Z,99181.03
2022-11-23T02:26:34.613Z,99185.44
2022-11-23T02:29:09.043Z,99172.44
2022-11-23T02:31:45.281Z,99165.38
2022-11-23T02:34:13.477Z,99165.84
2022-11-23T02:36:42.882Z,99163.84
2022-11-23T02:39:13.625Z,99159.03
2022-11-23T02:41:45.461Z,99142.69
2022-11-23T02:44:26.194Z,99135.66
2022-11-23T02:46:55.095Z,99141.03
2022-11-23T02:49:23.462Z,99133.22
2022-11-23T02:51:52.714Z,99134.47
2022-11-23T02:54:20.994Z,99137.16
2022-11-23T02:56:50.625Z,99133.25
2022-11-23T02:59:20.722Z,99134.31
2022-11-23T03:01:54.364Z,99136.41
2022-11-23T03:04:27.615Z,99131.72
2022-11-23T03:06:56.599Z,99129.22
2022-11-23T03:09:26.505Z,99127.00
2022-11-23T03:11:56.794Z,99116.00
2022-11-23T03:14:26.556Z,99106.31
2022-11-23T03:16:59.589Z,99098.69
2022-11-23T03:19:31.500Z,99092.34
2022-11-23T03:21:59.797Z,99096.28
2022-11-23T03:24:31.801Z,99089.28
2022-11-23T03:27:03.260Z,99089.34
2022-11-23T03:29:31.654Z,99095.53
2022-11-23T03:32:02.843Z,99085.47
2022-11-23T03:34:31.349Z,99086.72
2022-11-23T03:36:59.518Z,99085.31
2022-11-23T03:39:28.555Z,99082.81
2022-11-23T03:42:07.183Z,99081.19
2022-11-23T03:44:36.292Z,99076.03
2022-11-23T03:47:06.013Z,99075.81
2022-11-23T03:49:36.387Z,99071.72
2022-11-23T03:52:05.003Z,99060.06
2022-11-23T03:54:33.050Z,99059.56
2022-11-23T03:57:01.203Z,99044.47
2022-11-23T03:59:30.783Z,99045.91
2022-11-23T04:01:59.074Z,99050.97
2022-11-23T04:04:29.334Z,99048.91
2022-11-23T04:07:08.959Z,99049.63
2022-11-23T04:09:42.582Z,99043.50
2022-11-23T04:12:36.747Z,99041.53
2022-11-23T04:15:07.333Z,99032.44
2022-11-23T04:17:36.620Z,99031.06
2022-11-23T04:20:05.464Z,99037.66
2022-11-23T04:22:33.600Z,99036.25
2022-11-23T04:25:02.095Z,99041.19
2022-11-23T04:27:30.197Z,99038.63
2022-11-23T04:29:58.553Z,99035.16
2022-11-23T04:32:28.088Z,99035.88
2022-11-23T04:34:56.468Z,99027.69
2022-11-23T04:37:24.471Z,99028.63
2022-11-23T04:39:53.725Z,99023.25
2022-11-23T04:42:28.328Z,99019.66
2022-11-23T04:45:02.447Z,99019.31
2022-11-23T04:47:33.664Z,99015.44
2022-11-23T04:50:09.457Z,99006.53
2022-11-23T04:52:37.589Z,99007.34
2022-11-23T04:55:10.724Z,99008.97
2022-11-23T04:57:47.149Z,99003.59
2022-11-23T05:00:16.479Z,99001.03
2022-11-23T05:02:47.004Z,98995.66
2022-11-23T05:05:35.509Z,98991.31
2022-11-23T05:08:04.355Z,98985.34
2022-11-23T05:10:47.011Z,98980.09
2022-11-23T05:13:15.549Z,98982.78
2022-11-23T05:15:44.852Z,98974.00
2022-11-23T05:18:21.036Z,98987.09
2022-11-23T05:20:50.717Z,98979.50
2022-11-23T05:23:19.021Z,98988.63
2022-11-23T05:25:47.337Z,98982.19
2022-11-23T05:31:09.449Z,98966.97
2022-11-23T05:33:39.405Z,98962.28
2022-11-23T05:36:13.834Z,98963.13
2022-11-23T05:38:43.380Z,98955.13
2022-11-23T05:41:16.769Z,98945.31
2022-11-23T05:43:46.418Z,98942.75
2022-11-23T05:46:22.364Z,98943.22
2022-11-23T05:48:52.059Z,98938.28
2022-11-23T05:51:20.484Z,98936.63
2022-11-23T05:53:50.310Z,98936.19
2022-11-23T05:56:25.154Z,98937.09
2022-11-23T05:59:06.534Z,98926.72
2022-11-23T06:01:36.912Z,98919.31
2022-11-23T06:04:07.901Z,98917.13
2022-11-23T06:06:41.882Z,98909.84
2022-11-23T06:09:10.159Z,98897.78
2022-11-23T06:11:40.891Z,98894.16
2022-11-23T06:14:15.194Z,98892.03
2022-11-23T06:16:46.114Z,98891.09
2022-11-23T06:19:32.637Z,98893.19
2022-11-23T06:22:01.946Z,98895.41
2022-11-23T06:24:34.212Z,98883.38
2022-11-23T06:27:40.971Z,98868.50
2022-11-23T06:30:20.015Z,98861.72
2022-11-23T06:32:49.051Z,98851.13
2022-11-23T06:35:19.615Z,98833.41
2022-11-23T06:37:49.614Z,98827.88
2022-11-23T06:40:20.968Z,98819.53
2022-11-23T06:42:49.055Z,98821.53
2022-11-23T06:45:22.387Z,98818.28
2022-11-23T06:47:55.821Z,98804.53
2022-11-23T06:50:25.266Z,98799.47
2022-11-23T06:52:57.342Z,98801.00
2022-11-23T06:55:35.804Z,98797.66
2022-11-23T06:58:05.997Z,98783.53
2022-11-23T07:00:34.676Z,98777.16
2022-11-23T07:03:04.377Z,98763.84
2022-11-23T07:05:41.380Z,98760.97
2022-11-23T07:08:09.879Z,98753.44
2022-11-23T07:10:38.547Z,98737.78
2022-11-23T07:13:06.985Z,98730.56
2022-11-23T07:15:36.962Z,98742.50
2022-11-23T07:18:05.821Z,98738.09
2022-11-23T07:20:36.342Z,98741.66
2022-11-23T07:23:09.236Z,98741.97
2022-11-23T07:25:38.896Z,98741.50
2022-11-23T07:28:08.719Z,98752.84
2022-11-23T07:30:37.446Z,98746.22
2022-11-23T07:33:08.402Z,98741.31
2022-11-23T07:35:40.536Z,98725.44
2022-11-23T07:38:10.961Z,98745.13
2022-11-23T07:40:40.652Z,98754.97
2022-11-23T07:43:16.608Z,98734.44
2022-11-23T07:45:49.492Z,98738.03
2022-11-23T07:48:18.554Z,98725.41
2022-11-23T07:50:49.241Z,98713.56
2022-11-23T07:53:18.763Z,98725.53
2022-11-23T07:55:47.149Z,98696.38
2022-11-23T07:58:15.156Z,98685.53
2022-11-23T08:00:43.297Z,98681.47
2022-11-23T08:03:30.253Z,98662.56
2022-11-23T08:05:58.776Z,98658.56
2022-11-23T08:08:28.455Z,98663.13
2022-11-23T08:10:56.585Z,98657.44
2022-11-23T08:13:27.239Z,98651.00
2022-11-23T08:15:56.109Z,98654.25
2022-11-23T08:18:27.143Z,98638.88
2022-11-23T08:20:55.546Z,98635.38
2022-11-23T08:23:25.707Z,98629.41
2022-11-23T08:25:55.257Z,98624.31
2022-11-23T08:28:23.632Z,98633.25
2022-11-23T08:30:51.664Z,98631.63
2022-11-23T08:33:19.958Z,98611.09
2022-11-23T08:35:48.093Z,98612.72
2022-11-23T08:38:16.414Z,98607.88
2022-11-23T08:40:44.720Z,98607.88
2022-11-23T08:43:14.301Z,98600.63
2022-11-23T08:45:42.455Z,98604.13
2022-11-23T08:48:10.909Z,98590.88
2022-11-23T08:50:39.421Z,98586.00
2022-11-23T08:53:07.482Z,98579.25
2022-11-23T08:55:35.682Z,98572.22
2022-11-23T08:58:04.071Z,98570.84
2022-11-23T09:00:35.515Z,98584.94
2022-11-23T09:03:06.026Z,98567.88
2022-11-23T09:05:34.064Z,98560.31
2022-11-23T09:08:02.570Z,98561.94
2022-11-23T09:10:30.736Z,98563.56
2022-11-23T09:12:59.878Z,98567.34
2022-11-23T09:15:27.924Z,98560.31
2022-11-23T09:17:57.694Z,98574.94
2022-11-23T09:20:25.834Z,98585.53
2022-11-23T09:22:54.594Z,98608.25
2022-11-23T09:25:24.199Z,98631.84
2022-11-23T09:27:58.672Z,98627.00
2022-11-23T09:30:26.815Z,98617.78
2022-11-23T09:32:58.148Z,98626.19
2022-11-23T09:35:26.412Z,98629.19
2022-11-23T09:37:58.682Z,98645.44
2022-11-23T09:40:32.015Z,98661.44
2022-11-23T09:43:18.428Z,98668.78
2022-11-23T09:45:50.402Z,98675.25
2022-11-23T09:48:33.087Z,98683.38
2022-11-23T09:51:05.830Z,98693.16
2022-11-23T09:53:41.272Z,98700.50
2022-11-23T09:56:18.032Z,98699.41
2022-11-23T09:58:46.239Z,98708.31
2022-11-23T10:01:16.897Z,98711.06
2022-11-23T10:03:49.189Z,98707.50
2022-11-23T10:06:21.005Z,98725.38
2022-11-23T10:08:59.428Z,98734.03
2022-11-23T10:11:40.277Z,98741.38
2022-11-23T10:14:24.020Z,98749.47
2022-11-23T10:17:00.308Z,98753.22
2022-11-23T10:19:40.973Z,98754.31
2022-11-23T10:22:16.453Z,98757.59
2022-11-23T10:24:50.108Z,98766.78
2022-11-23T10:27:20.435Z,98770.03
2022-11-23T10:29:49.955Z,98785.22
2022-11-23T10:32:27.623Z,98780.34
2022-11-23T10:35:04.601Z,98797.69
2022-11-23T10:37:34.073Z,98796.31
2022-11-23T10:40:02.292Z,98804.22
2022-11-23T10:42:34.803Z,98817.78
2022-11-23T10:45:20.532Z,98832.97
2022-11-23T10:47:52.505Z,98827.78
2022-11-23T10:50:54.732Z,98843.81
2022-11-23T10:53:28.499Z,98841.09
2022-11-23T10:56:17.175Z,98850.28
2022-11-23T10:58:47.362Z,98862.78
2022-11-23T11:01:17.047Z,98858.44
2022-11-23T11:03:45.154Z,98876.56
2022-11-23T11:06:24.234Z,98891.56
2022-11-23T11:08:54.760Z,98902.94
2022-11-23T11:11:25.575Z,98905.06
2022-11-23T11:14:05.319Z,98912.75
2022-11-23T11:16:35.012Z,98908.88
2022-11-23T11:19:23.810Z,98919.75
2022-11-23T11:21:53.352Z,98921.66
2022-11-23T11:24:27.830Z,98928.97
2022-11-23T11:27:02.813Z,98939.81
2022-11-23T11:29:39.189Z,98930.34
2022-11-23T11:32:13.645Z,98932.78
2022-11-23T11:34:48.733Z,98938.53
2022-11-23T11:37:24.294Z,98932.34
2022-11-23T11:39:56.707Z,98929.38
2022-11-23T11:42:34.671Z,98940.78
2022-11-23T11:45:07.359Z,98944.88
2022-11-23T11:47:40.750Z,98952.50
2022-11-23T11:50:24.815Z,98957.38
2022-11-23T11:53:04.173Z,98959.56
2022-11-23T11:55:46.396Z,98966.88
2022-11-23T11:58:17.672Z,98971.03
2022-11-23T12:00:48.685Z,98969.31
2022-11-23T12:03:21.027Z,98970.75
2022-11-23T12:06:26.455Z,98977.03
2022-11-23T12:09:02.796Z,98986.28
2022-11-23T12:11:30.875Z,98987.13
2022-11-23T12:17:52.165Z,98992.91
2022-11-23T12:20:50.792Z,99000.22
2022-11-23T12:23:37.889Z,99009.19
2022-11-23T12:26:22.971Z,99003.78
2022-11-23T12:29:08.489Z,98997.34
2022-11-23T12:31:45.130Z,98995.69
2022-11-23T12:34:35.175Z,99009.00
2022-11-23T12:37:23.810Z,99020.97
2022-11-23T12:40:24.595Z,99030.22
2022-11-23T12:43:01.613Z,99027.81
2022-11-23T12:45:49.527Z,99036.22
2022-11-23T12:48:37.164Z,99039.22
2022-11-23T12:51:14.729Z,99022.38
2022-11-23T12:53:50.244Z,99027.56
2022-11-23T12:56:30.741Z,99047.09
2022-11-23T12:59:01.386Z,99050.66
2022-11-23T13:01:34.449Z,99042.50
2022-11-23T13:04:31.791Z,99056.34
2022-11-23T13:07:30.543Z,99050.66
2022-11-23T13:10:35.971Z,99066.72
2022-11-23T13:13:25.137Z,99069.66
2022-11-23T13:16:22.763Z,99072.94
2022-11-23T13:19:13.694Z,99072.38
2022-11-23T13:21:43.335Z,99070.72
2022-11-23T13:24:32.808Z,99081.59
2022-11-23T13:27:47.206Z,99073.44
2022-11-23T13:30:45.630Z,99091.06
2022-11-23T13:33:38.916Z,99082.09
2022-11-23T13:36:15.268Z,99092.69
2022-11-23T13:38:46.589Z,99096.50
2022-11-23T13:41:57.376Z,99102.19
2022-11-23T13:44:31.566Z,99107.91
2022-11-23T13:47:06.741Z,99114.69
2022-11-23T13:49:42.499Z,99113.88
2022-11-23T13:52:32.747Z,99135.84
2022-11-23T13:55:09.698Z,99127.16
2022-11-23T13:57:39.378Z,99130.44
2022-11-23T14:00:44.727Z,99128.22
2022-11-23T14:03:51.109Z,99138.81
2022-11-23T14:06:28.393Z,99146.44
2022-11-23T14:09:04.089Z,99137.47
2022-11-23T14:11:41.149Z,99138.53
2022-11-23T14:14:20.299Z,99128.75
2022-11-23T14:17:16.390Z,99140.16
2022-11-23T14:20:00.039Z,99141.75
2022-11-23T14:22:41.143Z,99146.13
2022-11-23T14:25:41.465Z,99137.38
2022-11-23T14:28:22.389Z,99141.75
2022-11-23T14:31:06.379Z,99131.72
2022-11-23T14:33:42.371Z,99142.31
2022-11-23T14:36:23.691Z,99136.84
2022-11-23T14:39:11.031Z,99145.31
2022-11-23T14:41:42.352Z,99143.91
2022-11-23T14:44:14.707Z,99151.50
2022-11-23T14:47:00.607Z,99156.91
2022-11-23T14:49:29.743Z,99168.06
2022-11-23T14:51:58.475Z,99183.47
2022-11-23T14:54:32.240Z,99183.19
2022-11-23T14:57:03.850Z,99185.13
2022-11-23T14:59:35.291Z,99184.84
2022-11-23T15:02:06.793Z,99178.63
2022-11-23T15:04:42.528Z,99181.59
2022-11-23T15:07:17.518Z,99197.31
2022-11-23T15:09:52.695Z,99195.97
2022-11-23T15:12:29.204Z,99197.88
2022-11-23T15:14:58.570Z,99199.47
2022-11-23T15:17:27.160Z,99213.28
2022-11-23T15:19:57.091Z,99212.19
2022-11-23T15:22:26.762Z,99201.94
2022-11-23T15:25:06.943Z,99220.28
2022-11-23T15:27:35.085Z,99231.13
2022-11-23T15:30:03.132Z,99241.19
2022-11-23T15:32:34.635Z,99242.22
2022-11-23T15:35:07.316Z,99253.38
2022-11-23T15:37:42.354Z,99238.13
2022-11-23T15:40:15.648Z,99245.09
2022-11-23T15:42:44.621Z,99260.25
2022-11-23T15:45:35.962Z,99260.78
2022-11-23T15:48:06.243Z,99268.00
2022-11-23T15:50:34.659Z,99277.03
2022-11-23T15:53:03.390Z,99288.88
2022-11-23T15:55:32.927Z,99289.31
2022-11-23T15:58:02.762Z,99283.34
2022-11-23T16:00:31.432Z,99299.50
2022-11-23T16:03:35.140Z,99299.00
2022-11-23T16:06:21.219Z,99307.13
2022-11-23T16:08:49.498Z,99312.44
2022-11-23T16:11:28.779Z,99319.75
2022-11-23T16:14:13.188Z,99324.38
2022-11-23T16:16:45.778Z,99329.22
2022-11-23T16:19:25.343Z,99337.34
2022-11-23T16:22:01.795Z,99327.88
2022-11-23T16:24:32.642Z,99342.25
2022-11-23T16:27:03.318Z,99342.25
2022-11-23T16:29:36.258Z,99356.84
2022-11-23T16:32:07.146Z,99355.94
2022-11-23T16:34:35.752Z,99354.63
2022-11-23T16:37:04.879Z,99362.69
2022-11-23T16:39:33.032Z,99362.69
2022-11-23T16:42:02.492Z,99375.66
2022-11-23T16:44:31.348Z,99381.53
2022-11-23T16:47:19.791Z,99382.25
2022-11-23T16:49:47.832Z,99381.38
2022-11-23T16:52:16.100Z,99384.09
2022-11-23T16:54:44.203Z,99380.47
2022-11-23T16:57:21.323Z,99383.63
2022-11-23T16:59:49.387Z,99382.44
2022-11-23T17:02:17.967Z,99388.97
2022-11-23T17:04:46.236Z,99392.63
2022-11-23T17:07:14.557Z,99389.38
2022-11-23T17:09:42.685Z,99398.41
2022-11-23T17:12:19.095Z,99391.66
2022-11-23T17:14:49.644Z,99402.44
2022-11-23T17:17:21.304Z,99409.41
2022-11-23T17:19:50.001Z,99396.13
2022-11-23T17:22:19.286Z,99407.25
2022-11-23T17:24:49.127Z,99404.78
2022-11-23T17:27:22.554Z,99411.56
2022-11-23T17:29:56.518Z,99406.38
2022-11-23T17:32:35.443Z,99400.13
2022-11-23T17:35:03.604Z,99411.56
2022-11-23T17:37:31.789Z,99410.72
2022-11-23T17:39:59.825Z,99418.53
2022-11-23T17:42:31.088Z,99418.44
2022-11-23T17:44:59.564Z,99418.03
2022-11-23T17:47:30.297Z,99417.13
2022-11-23T17:49:59.319Z,99429.44
2022-11-23T17:52:27.526Z,99417.44
2022-11-23T17:54:55.455Z,99422.63
2022-11-23T17:57:24.952Z,99421.53
2022-11-23T17:59:54.715Z,99427.63
2022-11-23T18:02:22.915Z,99434.53
2022-11-23T18:04:51.008Z,99423.22
2022-11-23T18:07:19.137Z,99421.91
2022-11-23T18:09:47.204Z,99427.31
2022-11-23T18:12:15.431Z,99433.38
2022-11-23T18:14:43.499Z,99428.75
2022-11-23T18:17:13.011Z,99432.81
2022-11-23T18:19:41.101Z,99442.75
2022-11-23T18:22:09.208Z,99445.09
2022-11-23T18:24:37.483Z,99444.59
2022-11-23T18:27:05.564Z,99451.91
2022-11-23T18:29:34.045Z,99445.53
2022-11-23T18:32:02.639Z,99446.00
2022-11-23T18:34:32.101Z,99458.00
2022-11-23T18:37:00.259Z,99444.38
2022-11-23T18:39:28.445Z,99459.72
2022-11-23T18:42:00.014Z,99453.72
2022-11-23T18:44:30.834Z,99453.78
2022-11-23T18:46:59.051Z,99447.22
2022-11-23T18:49:27.423Z,99452.88
2022-11-23T18:51:56.921Z,99468.34
2022-11-23T18:54:25.174Z,99458.16
2022-11-23T18:56:53.179Z,99466.72
2022-11-23T18:59:56.457Z,99469.41
2022-11-23T19:02:11.136Z,99473.75
2022-11-23T19:04:39.843Z,99471.63
2022-11-23T19:07:09.455Z,99472.44
2022-11-23T19:09:37.918Z,99480.50
2022-11-23T19:12:06.901Z,99492.91
2022-11-23T19:14:34.990Z,99491.09
2022-11-23T19:17:03.314Z,99500.06
2022-11-23T19:19:32.001Z,99511.47
